Mediterranean Sea — WDG229 — position and weather

sailwx.info

Track history (hours):
 
Tides and Currents Weather Stations Pressure Air Temp Water Temp Dewpoint Dewpoint Depression Visibility Wind Speed Wind Dir Waves Ship Positions

Mediterranean Sea

Last reported at 2015-Feb-28 00:31 UTC. Time now 2015-Feb-28 00:49 UTC.
Position N 41°13' W 072°58'.

Length 33 m; draft 6 m.

Type: Ship. MMSI: 367010390.

Date/timePositionNaut miles runAvg speedWind from/ knotsBaromVisibWave heightAir tempDewpointWater temp
2015-Feb-28 00:31N 41°13' W 072°58'0 0.3
2015-Feb-27 23:33N 41°13' W 072°58'7 7.4
2015-Feb-27 22:33N 41°07' W 073°03'41 7.6
2015-Feb-27 17:12N 40°48' W 073°51'5 6.9
2015-Feb-27 16:27N 40°46' W 073°57'6 6.3
2015-Feb-27 15:33N 40°41' W 074°01'5 4.6
2015-Feb-27 14:33N 40°39' W 074°07'0 0.0
2015-Feb-27 13:33N 40°39' W 074°07'0 0.0
2015-Feb-27 12:33N 40°39' W 074°07'0 0.0
2015-Feb-27 11:33N 40°39' W 074°07'0 0.0
2015-Feb-27 10:33N 40°39' W 074°07'0 0.0
2015-Feb-27 09:33N 40°39' W 074°07'0 0.0
2015-Feb-27 08:33N 40°39' W 074°07'0 0.0
2015-Feb-27 07:33N 40°39' W 074°07'0 0.0
2015-Feb-27 06:33N 40°39' W 074°07'0 0.0
2015-Feb-27 05:33N 40°39' W 074°07'0 0.0
2015-Feb-27 04:30N 40°39' W 074°07'0 0.0
2015-Feb-27 03:32N 40°39' W 074°07'0 0.0
2015-Feb-27 02:09N 40°39' W 074°07'0 0.0
2015-Feb-27 01:21N 40°39' W 074°07'0 0.0
2015-Feb-27 00:31N 40°39' W 074°07'0 0.0
2015-Feb-26 23:31N 40°39' W 074°07'0 0.4
2015-Feb-26 22:30N 40°39' W 074°07'2 2.2
2015-Feb-26 21:28N 40°39' W 074°10'0 0.0
2015-Feb-26 20:33N 40°39' W 074°10'0 0.0
2015-Feb-26 19:33N 40°39' W 074°10'0 0.0
2015-Feb-26 18:32N 40°39' W 074°10'0 0.0
2015-Feb-26 17:33N 40°39' W 074°10'0 0.0
2015-Feb-26 16:32N 40°39' W 074°10'3 2.3
2015-Feb-26 15:25N 40°39' W 074°07'0 0.0
2015-Feb-26 14:31N 40°39' W 074°07'2 1.5
2015-Feb-26 13:29N 40°39' W 074°05'2 1.6
2015-Feb-26 12:31N 40°39' W 074°03'4 4.1
2015-Feb-26 11:33N 40°43' W 074°01'0 0.1
2015-Feb-26 10:33N 40°43' W 074°01'7 5.9
2015-Feb-26 09:17N 40°48' W 073°54'12 4.3
2015-Feb-26 06:28N 40°55' W 073°40'1 0.5
2015-Feb-26 05:19N 40°55' W 073°40'0 0.3
2015-Feb-26 04:33N 40°55' W 073°39'4 3.9
2015-Feb-26 03:33N 40°57' W 073°35'9 8.7
2015-Feb-26 02:33N 41°00' W 073°24'8 8.4
2015-Feb-26 01:33N 41°01' W 073°13'8 8.4
2015-Feb-26 00:33N 41°03' W 073°02'8 8.1
2015-Feb-25 23:33N 41°05' W 072°52'9 8.6
2015-Feb-25 22:33N 41°07' W 072°41'8 8.3
2015-Feb-25 21:33N 41°09' W 072°30'9 8.8
2015-Feb-25 20:33N 41°12' W 072°19'9 8.9
2015-Feb-25 19:33N 41°14' W 072°08'9 9.0
2015-Feb-25 18:33N 41°15' W 071°56'9 9.0
2015-Feb-25 17:33N 41°17' W 071°44'9 8.6
2015-Feb-25 16:33N 41°18' W 071°33'7 7.0
2015-Feb-25 15:33N 41°22' W 071°25'8 7.9
2015-Feb-25 14:33N 41°29' W 071°21'8 7.5
2015-Feb-25 13:33N 41°37' W 071°18'8 8.0
2015-Feb-25 12:33N 41°44' W 071°22'3 2.9
2015-Feb-25 11:33N 41°47' W 071°22'0 0.0
2015-Feb-25 10:33N 41°47' W 071°22'0 0.0
2015-Feb-25 09:33N 41°47' W 071°22'0 0.0
2015-Feb-25 08:33N 41°47' W 071°22'0 0.0
2015-Feb-25 07:33N 41°47' W 071°22'0 0.0
2015-Feb-25 06:33N 41°47' W 071°22'0 0.0
2015-Feb-25 05:33N 41°47' W 071°22'0 0.0
2015-Feb-25 04:33N 41°47' W 071°22'0 0.0
2015-Feb-25 03:33N 41°47' W 071°22'0 0.0
2015-Feb-25 02:33N 41°47' W 071°22'0 0.0
2015-Feb-25 01:33N 41°47' W 071°22'0 0.0
2015-Feb-25 00:33N 41°47' W 071°22'0 0.0
2015-Feb-24 23:33N 41°47' W 071°22'0 0.0
2015-Feb-24 22:33N 41°47' W 071°22'0 0.0
2015-Feb-24 21:33N 41°47' W 071°22'0 0.0
2015-Feb-24 20:33N 41°47' W 071°22'0 0.0
2015-Feb-24 19:33N 41°47' W 071°22'0 0.0
2015-Feb-24 18:32N 41°47' W 071°22'0 0.0
2015-Feb-24 17:33N 41°47' W 071°22'0 0.0
2015-Feb-24 16:33N 41°47' W 071°22'0 0.0
2015-Feb-24 15:33N 41°47' W 071°22'0 0.0
2015-Feb-24 14:33N 41°47' W 071°22'0 0.0
2015-Feb-24 13:33N 41°47' W 071°22'5 5.2
2015-Feb-24 12:33N 41°42' W 071°20'7 7.4
2015-Feb-24 11:33N 41°35' W 071°19'2 2.4
2015-Feb-24 10:31N 41°32' W 071°19'0 0.0
2015-Feb-24 09:31N 41°32' W 071°19'0 0.0
2015-Feb-24 08:31N 41°32' W 071°19'0 0.0
2015-Feb-24 07:31N 41°32' W 071°19'0 0.0
2015-Feb-24 06:31N 41°32' W 071°19'0 0.0
2015-Feb-24 05:25N 41°32' W 071°19'0 0.1
2015-Feb-24 04:31N 41°32' W 071°19'0 0.0
2015-Feb-24 03:31N 41°32' W 071°19'0 0.0
2015-Feb-24 02:31N 41°32' W 071°19'0 0.0
2015-Feb-24 01:31N 41°32' W 071°19'0 0.0
2015-Feb-24 00:31N 41°32' W 071°19'0 0.0
2015-Feb-23 23:31N 41°33' W 071°19'0 0.0
2015-Feb-23 22:31N 41°33' W 071°19'0 0.0
2015-Feb-23 21:31N 41°32' W 071°19'0 0.0
2015-Feb-23 20:31N 41°32' W 071°19'0 0.1
2015-Feb-23 19:34N 41°32' W 071°19'0 0.0
2015-Feb-23 18:33N 41°32' W 071°19'0 0.0
2015-Feb-23 17:33N 41°32' W 071°19'0 0.1
2015-Feb-23 16:33N 41°32' W 071°19'0 0.0
2015-Feb-23 15:34N 41°32' W 071°19'0 0.1
2015-Feb-23 14:33N 41°33' W 071°19'2 1.8
2015-Feb-23 13:33N 41°31' W 071°21'2 2.2
2015-Feb-23 12:33N 41°29' W 071°21'4 4.1
2015-Feb-23 11:33N 41°25' W 071°23'4 4.0
2015-Feb-23 10:33N 41°22' W 071°25'4 3.9
2015-Feb-23 09:34N 41°18' W 071°26'4 4.1
2015-Feb-23 08:34N 41°17' W 071°32'5 4.7
2015-Feb-23 07:34N 41°17' W 071°38'5 5.1
2015-Feb-23 06:33N 41°16' W 071°45'5 4.8
2015-Feb-23 05:34N 41°15' W 071°51'4 4.3
2015-Feb-23 04:33N 41°14' W 071°56'4 3.7
2015-Feb-23 03:34N 41°14' W 072°01'4 3.7
2015-Feb-23 02:33N 41°15' W 072°06'4 4.4
2015-Feb-23 01:33N 41°14' W 072°12'6 5.9
2015-Feb-23 00:34N 41°12' W 072°19'7 7.2
2015-Feb-22 23:33N 41°08' W 072°27'2 2.4
2015-Feb-22 22:34N 41°08' W 072°30'6 5.7
2015-Feb-22 21:33N 41°06' W 072°38'7 7.0
2015-Feb-22 20:33N 41°04' W 072°46'5 5.5
2015-Feb-22 19:33N 41°02' W 072°53'0 0.3
2015-Feb-22 18:33N 41°02' W 072°53'1 0.5
2015-Feb-22 17:33N 41°02' W 072°53'1 0.7
2015-Feb-22 16:34N 41°03' W 072°52'8 0.6
2015-Feb-22 02:20N 41°02' W 073°03'3 3.3
2015-Feb-22 01:33N 41°02' W 073°06'4 3.9
2015-Feb-22 00:31N 41°01' W 073°11'4 4.1
2015-Feb-21 23:33N 41°01' W 073°16'5 4.5
2015-Feb-21 22:33N 41°00' W 073°22'4 4.4
2015-Feb-21 21:33N 40°59' W 073°28'4 4.0
2015-Feb-21 20:28N 40°57' W 073°33'6 4.9
2015-Feb-21 19:11N 40°54' W 073°40'10 5.5
2015-Feb-21 17:26N 40°48' W 073°50'6 6.1
2015-Feb-21 16:31N 40°46' W 073°57'6 6.1
2015-Feb-21 15:34N 40°41' W 074°01'2 2.4
2015-Feb-21 14:32N 40°39' W 074°03'0 0.1
2015-Feb-21 13:33N 40°39' W 074°03'2 2.2
2015-Feb-21 12:34N 40°41' W 074°02'6 5.7
2015-Feb-21 11:33N 40°46' W 074°00'2 2.2
2015-Feb-21 10:33N 40°44' W 074°01'6 5.9
2015-Feb-21 09:33N 40°39' W 074°04'1 0.6
2015-Feb-21 08:29N 40°39' W 074°05'0 0.0
2015-Feb-21 07:32N 40°39' W 074°05'0 0.0
2015-Feb-21 06:32N 40°39' W 074°05'0 0.0
2015-Feb-21 05:32N 40°39' W 074°05'0 0.0
2015-Feb-21 04:32N 40°39' W 074°05'0 0.0
2015-Feb-21 03:32N 40°39' W 074°05'0 0.0
2015-Feb-21 02:08N 40°39' W 074°05'0 0.0
2015-Feb-21 01:32N 40°39' W 074°05'0 0.0
2015-Feb-21 00:32N 40°39' W 074°05'0 0.0
2015-Feb-20 23:32N 40°39' W 074°05'0 0.0
2015-Feb-20 22:32N 40°39' W 074°05'0 0.0
2015-Feb-20 21:32N 40°39' W 074°05'0 0.0
2015-Feb-20 20:32N 40°39' W 074°05'0 0.0
2015-Feb-20 19:32N 40°39' W 074°05'0 0.0
2015-Feb-20 18:26N 40°39' W 074°05'0 0.0
2015-Feb-20 17:32N 40°39' W 074°05'0 0.0
2015-Feb-20 16:31N 40°39' W 074°05'0 0.0
2015-Feb-20 15:32N 40°39' W 074°05'0 0.0
2015-Feb-20 14:31N 40°39' W 074°05'0 0.0
2015-Feb-20 13:32N 40°39' W 074°05'0 0.0
2015-Feb-20 12:31N 40°39' W 074°05'0 0.0
2015-Feb-20 11:26N 40°39' W 074°05'0 0.0
2015-Feb-20 10:31N 40°39' W 074°05'0 0.0
2015-Feb-20 09:29N 40°39' W 074°05'1 0.9
2015-Feb-20 08:33N 40°39' W 074°04'1 1.0
2015-Feb-20 07:33N 40°39' W 074°03'0 0.0
2015-Feb-20 06:33N 40°39' W 074°03'0 0.0
2015-Feb-20 05:33N 40°39' W 074°03'0 0.0
2015-Feb-20 04:33N 40°39' W 074°03'0 0.0
2015-Feb-20 03:33N 40°39' W 074°03'0 0.1
2015-Feb-20 02:33N 40°39' W 074°03'0 0.0
2015-Feb-20 01:30N 40°40' W 074°03'0 0.0
2015-Feb-20 00:33N 40°39' W 074°03'0 0.0
2015-Feb-19 23:33N 40°39' W 074°03'0 0.0
2015-Feb-19 22:33N 40°39' W 074°03'0 0.0
2015-Feb-19 21:27N 40°39' W 074°03'0 0.0
2015-Feb-19 20:33N 40°39' W 074°03'0 0.2
2015-Feb-19 19:33N 40°39' W 074°03'8 7.5
2015-Feb-19 18:33N 40°47' W 074°00'2 1.3
2015-Feb-19 17:14N 40°48' W 073°59'0 0.1
2015-Feb-19 16:29N 40°48' W 073°59'0 0.1
2015-Feb-19 15:32N 40°48' W 073°59'0 0.1
2015-Feb-19 14:23N 40°48' W 073°59'0 0.0
2015-Feb-19 13:32N 40°48' W 073°59'0 0.0
2015-Feb-19 12:26N 40°48' W 073°59'0 0.1
2015-Feb-19 11:34N 40°48' W 073°59'5 4.5
2015-Feb-19 10:34N 40°44' W 074°01'2 2.4
2015-Feb-19 09:33N 40°43' W 073°58'6 6.3
2015-Feb-19 08:32N 40°48' W 073°53'8 5.8
2015-Feb-19 07:11N 40°52' W 073°44'3 5.2
2015-Feb-19 06:33N 40°54' W 073°40'6 5.8
2015-Feb-19 05:32N 40°58' W 073°34'2 2.1
2015-Feb-19 04:33N 40°58' W 073°31'5 4.7
2015-Feb-19 03:34N 40°60' W 073°26'8 8.2
2015-Feb-19 02:33N 41°02' W 073°16'1010.0
2015-Feb-19 01:31N 41°08' W 073°04'9 9.6
2015-Feb-19 00:34N 41°14' W 072°55'3 1.4
2015-Feb-18 22:09N 41°18' W 072°54'0 0.0
2015-Feb-18 20:33N 41°18' W 072°54'0 0.0
2015-Feb-18 16:09N 41°18' W 072°54'0 0.0
2015-Feb-18 15:09N 41°18' W 072°54'0 0.0
2015-Feb-18 14:21N 41°18' W 072°54'0 0.0
2015-Feb-18 13:33N 41°18' W 072°54'0 0.0
2015-Feb-18 12:33N 41°18' W 072°54'0 0.0
2015-Feb-18 11:33N 41°18' W 072°54'0 0.0
2015-Feb-18 10:33N 41°18' W 072°54'0 0.0
2015-Feb-18 09:30N 41°18' W 072°54'5 4.8
2015-Feb-18 08:33N 41°13' W 072°54'8 7.8
2015-Feb-18 07:33N 41°08' W 073°02'9 8.7
2015-Feb-18 06:33N 41°04' W 073°12'9 8.9
2015-Feb-18 05:33N 41°00' W 073°23'9 8.7
2015-Feb-18 04:33N 40°57' W 073°34'8 7.9
2015-Feb-18 03:33N 40°53' W 073°43'7 6.7
2015-Feb-18 02:33N 40°48' W 073°49'7 6.1
2015-Feb-18 01:25N 40°46' W 073°57'5 6.2
2015-Feb-18 00:33N 40°41' W 074°01'  
Track history (hours):
 
Tides and Currents Weather Stations Pressure Air Temp Water Temp Dewpoint Dewpoint Depression Visibility Wind Speed Wind Dir Waves Ship Positions

Mediterranean Sea

Last reported at 2015-Feb-28 00:31 UTC. Time now 2015-Feb-28 00:49 UTC.
Position N 41°13' W 072°58'.

Length 33 m; draft 6 m.

Type: Ship. MMSI: 367010390.

Date/timePositionNaut miles runAvg speedWind from/ knotsBaromVisibWave heightAir tempDewpointWater temp
2015-Feb-28 00:31N 41°13' W 072°58'0 0.3
2015-Feb-27 23:33N 41°13' W 072°58'7 7.4
2015-Feb-27 22:33N 41°07' W 073°03'41 7.6
2015-Feb-27 17:12N 40°48' W 073°51'5 6.9
2015-Feb-27 16:27N 40°46' W 073°57'6 6.3
2015-Feb-27 15:33N 40°41' W 074°01'5 4.6
2015-Feb-27 14:33N 40°39' W 074°07'0 0.0
2015-Feb-27 13:33N 40°39' W 074°07'0 0.0
2015-Feb-27 12:33N 40°39' W 074°07'0 0.0
2015-Feb-27 11:33N 40°39' W 074°07'0 0.0
2015-Feb-27 10:33N 40°39' W 074°07'0 0.0
2015-Feb-27 09:33N 40°39' W 074°07'0 0.0
2015-Feb-27 08:33N 40°39' W 074°07'0 0.0
2015-Feb-27 07:33N 40°39' W 074°07'0 0.0
2015-Feb-27 06:33N 40°39' W 074°07'0 0.0
2015-Feb-27 05:33N 40°39' W 074°07'0 0.0
2015-Feb-27 04:30N 40°39' W 074°07'0 0.0
2015-Feb-27 03:32N 40°39' W 074°07'0 0.0
2015-Feb-27 02:09N 40°39' W 074°07'0 0.0
2015-Feb-27 01:21N 40°39' W 074°07'0 0.0
2015-Feb-27 00:31N 40°39' W 074°07'0 0.0
2015-Feb-26 23:31N 40°39' W 074°07'0 0.4
2015-Feb-26 22:30N 40°39' W 074°07'2 2.2
2015-Feb-26 21:28N 40°39' W 074°10'0 0.0
2015-Feb-26 20:33N 40°39' W 074°10'0 0.0
2015-Feb-26 19:33N 40°39' W 074°10'0 0.0
2015-Feb-26 18:32N 40°39' W 074°10'0 0.0
2015-Feb-26 17:33N 40°39' W 074°10'0 0.0
2015-Feb-26 16:32N 40°39' W 074°10'3 2.3
2015-Feb-26 15:25N 40°39' W 074°07'0 0.0
2015-Feb-26 14:31N 40°39' W 074°07'2 1.5
2015-Feb-26 13:29N 40°39' W 074°05'2 1.6
2015-Feb-26 12:31N 40°39' W 074°03'4 4.1
2015-Feb-26 11:33N 40°43' W 074°01'0 0.1
2015-Feb-26 10:33N 40°43' W 074°01'7 5.9
2015-Feb-26 09:17N 40°48' W 073°54'12 4.3
2015-Feb-26 06:28N 40°55' W 073°40'1 0.5
2015-Feb-26 05:19N 40°55' W 073°40'0 0.3
2015-Feb-26 04:33N 40°55' W 073°39'4 3.9
2015-Feb-26 03:33N 40°57' W 073°35'9 8.7
2015-Feb-26 02:33N 41°00' W 073°24'8 8.4
2015-Feb-26 01:33N 41°01' W 073°13'8 8.4
2015-Feb-26 00:33N 41°03' W 073°02'8 8.1
2015-Feb-25 23:33N 41°05' W 072°52'9 8.6
2015-Feb-25 22:33N 41°07' W 072°41'8 8.3
2015-Feb-25 21:33N 41°09' W 072°30'9 8.8
2015-Feb-25 20:33N 41°12' W 072°19'9 8.9
2015-Feb-25 19:33N 41°14' W 072°08'9 9.0
2015-Feb-25 18:33N 41°15' W 071°56'9 9.0
2015-Feb-25 17:33N 41°17' W 071°44'9 8.6
2015-Feb-25 16:33N 41°18' W 071°33'7 7.0
2015-Feb-25 15:33N 41°22' W 071°25'8 7.9
2015-Feb-25 14:33N 41°29' W 071°21'8 7.5
2015-Feb-25 13:33N 41°37' W 071°18'8 8.0
2015-Feb-25 12:33N 41°44' W 071°22'3 2.9
2015-Feb-25 11:33N 41°47' W 071°22'0 0.0
2015-Feb-25 10:33N 41°47' W 071°22'0 0.0
2015-Feb-25 09:33N 41°47' W 071°22'0 0.0
2015-Feb-25 08:33N 41°47' W 071°22'0 0.0
2015-Feb-25 07:33N 41°47' W 071°22'0 0.0
2015-Feb-25 06:33N 41°47' W 071°22'0 0.0
2015-Feb-25 05:33N 41°47' W 071°22'0 0.0
2015-Feb-25 04:33N 41°47' W 071°22'0 0.0
2015-Feb-25 03:33N 41°47' W 071°22'0 0.0
2015-Feb-25 02:33N 41°47' W 071°22'0 0.0
2015-Feb-25 01:33N 41°47' W 071°22'0 0.0
2015-Feb-25 00:33N 41°47' W 071°22'0 0.0
2015-Feb-24 23:33N 41°47' W 071°22'0 0.0
2015-Feb-24 22:33N 41°47' W 071°22'0 0.0
2015-Feb-24 21:33N 41°47' W 071°22'0 0.0
2015-Feb-24 20:33N 41°47' W 071°22'0 0.0
2015-Feb-24 19:33N 41°47' W 071°22'0 0.0
2015-Feb-24 18:32N 41°47' W 071°22'0 0.0
2015-Feb-24 17:33N 41°47' W 071°22'0 0.0
2015-Feb-24 16:33N 41°47' W 071°22'0 0.0
2015-Feb-24 15:33N 41°47' W 071°22'0 0.0
2015-Feb-24 14:33N 41°47' W 071°22'0 0.0
2015-Feb-24 13:33N 41°47' W 071°22'5 5.2
2015-Feb-24 12:33N 41°42' W 071°20'7 7.4
2015-Feb-24 11:33N 41°35' W 071°19'2 2.4
2015-Feb-24 10:31N 41°32' W 071°19'0 0.0
2015-Feb-24 09:31N 41°32' W 071°19'0 0.0
2015-Feb-24 08:31N 41°32' W 071°19'0 0.0
2015-Feb-24 07:31N 41°32' W 071°19'0 0.0
2015-Feb-24 06:31N 41°32' W 071°19'0 0.0
2015-Feb-24 05:25N 41°32' W 071°19'0 0.1
2015-Feb-24 04:31N 41°32' W 071°19'0 0.0
2015-Feb-24 03:31N 41°32' W 071°19'0 0.0
2015-Feb-24 02:31N 41°32' W 071°19'0 0.0
2015-Feb-24 01:31N 41°32' W 071°19'0 0.0
2015-Feb-24 00:31N 41°32' W 071°19'0 0.0
2015-Feb-23 23:31N 41°33' W 071°19'0 0.0
2015-Feb-23 22:31N 41°33' W 071°19'0 0.0
2015-Feb-23 21:31N 41°32' W 071°19'0 0.0
2015-Feb-23 20:31N 41°32' W 071°19'0 0.1
2015-Feb-23 19:34N 41°32' W 071°19'0 0.0
2015-Feb-23 18:33N 41°32' W 071°19'0 0.0
2015-Feb-23 17:33N 41°32' W 071°19'0 0.1
2015-Feb-23 16:33N 41°32' W 071°19'0 0.0
2015-Feb-23 15:34N 41°32' W 071°19'0 0.1
2015-Feb-23 14:33N 41°33' W 071°19'2 1.8
2015-Feb-23 13:33N 41°31' W 071°21'2 2.2
2015-Feb-23 12:33N 41°29' W 071°21'4 4.1
2015-Feb-23 11:33N 41°25' W 071°23'4 4.0
2015-Feb-23 10:33N 41°22' W 071°25'4 3.9
2015-Feb-23 09:34N 41°18' W 071°26'4 4.1
2015-Feb-23 08:34N 41°17' W 071°32'5 4.7
2015-Feb-23 07:34N 41°17' W 071°38'5 5.1
2015-Feb-23 06:33N 41°16' W 071°45'5 4.8
2015-Feb-23 05:34N 41°15' W 071°51'4 4.3
2015-Feb-23 04:33N 41°14' W 071°56'4 3.7
2015-Feb-23 03:34N 41°14' W 072°01'4 3.7
2015-Feb-23 02:33N 41°15' W 072°06'4 4.4
2015-Feb-23 01:33N 41°14' W 072°12'6 5.9
2015-Feb-23 00:34N 41°12' W 072°19'7 7.2
2015-Feb-22 23:33N 41°08' W 072°27'2 2.4
2015-Feb-22 22:34N 41°08' W 072°30'6 5.7
2015-Feb-22 21:33N 41°06' W 072°38'7 7.0
2015-Feb-22 20:33N 41°04' W 072°46'5 5.5
2015-Feb-22 19:33N 41°02' W 072°53'0 0.3
2015-Feb-22 18:33N 41°02' W 072°53'1 0.5
2015-Feb-22 17:33N 41°02' W 072°53'1 0.7
2015-Feb-22 16:34N 41°03' W 072°52'8 0.6
2015-Feb-22 02:20N 41°02' W 073°03'3 3.3
2015-Feb-22 01:33N 41°02' W 073°06'4 3.9
2015-Feb-22 00:31N 41°01' W 073°11'4 4.1
2015-Feb-21 23:33N 41°01' W 073°16'5 4.5
2015-Feb-21 22:33N 41°00' W 073°22'4 4.4
2015-Feb-21 21:33N 40°59' W 073°28'4 4.0
2015-Feb-21 20:28N 40°57' W 073°33'6 4.9
2015-Feb-21 19:11N 40°54' W 073°40'10 5.5
2015-Feb-21 17:26N 40°48' W 073°50'6 6.1
2015-Feb-21 16:31N 40°46' W 073°57'6 6.1
2015-Feb-21 15:34N 40°41' W 074°01'2 2.4
2015-Feb-21 14:32N 40°39' W 074°03'0 0.1
2015-Feb-21 13:33N 40°39' W 074°03'2 2.2
2015-Feb-21 12:34N 40°41' W 074°02'6 5.7
2015-Feb-21 11:33N 40°46' W 074°00'2 2.2
2015-Feb-21 10:33N 40°44' W 074°01'6 5.9
2015-Feb-21 09:33N 40°39' W 074°04'1 0.6
2015-Feb-21 08:29N 40°39' W 074°05'0 0.0
2015-Feb-21 07:32N 40°39' W 074°05'0 0.0
2015-Feb-21 06:32N 40°39' W 074°05'0 0.0
2015-Feb-21 05:32N 40°39' W 074°05'0 0.0
2015-Feb-21 04:32N 40°39' W 074°05'0 0.0
2015-Feb-21 03:32N 40°39' W 074°05'0 0.0
2015-Feb-21 02:08N 40°39' W 074°05'0 0.0
2015-Feb-21 01:32N 40°39' W 074°05'0 0.0
2015-Feb-21 00:32N 40°39' W 074°05'0 0.0
2015-Feb-20 23:32N 40°39' W 074°05'0 0.0
2015-Feb-20 22:32N 40°39' W 074°05'0 0.0
2015-Feb-20 21:32N 40°39' W 074°05'0 0.0
2015-Feb-20 20:32N 40°39' W 074°05'0 0.0
2015-Feb-20 19:32N 40°39' W 074°05'0 0.0
2015-Feb-20 18:26N 40°39' W 074°05'0 0.0
2015-Feb-20 17:32N 40°39' W 074°05'0 0.0
2015-Feb-20 16:31N 40°39' W 074°05'0 0.0
2015-Feb-20 15:32N 40°39' W 074°05'0 0.0
2015-Feb-20 14:31N 40°39' W 074°05'0 0.0
2015-Feb-20 13:32N 40°39' W 074°05'0 0.0
2015-Feb-20 12:31N 40°39' W 074°05'0 0.0
2015-Feb-20 11:26N 40°39' W 074°05'0 0.0
2015-Feb-20 10:31N 40°39' W 074°05'0 0.0
2015-Feb-20 09:29N 40°39' W 074°05'1 0.9
2015-Feb-20 08:33N 40°39' W 074°04'1 1.0
2015-Feb-20 07:33N 40°39' W 074°03'0 0.0
2015-Feb-20 06:33N 40°39' W 074°03'0 0.0
2015-Feb-20 05:33N 40°39' W 074°03'0 0.0
2015-Feb-20 04:33N 40°39' W 074°03'0 0.0
2015-Feb-20 03:33N 40°39' W 074°03'0 0.1
2015-Feb-20 02:33N 40°39' W 074°03'0 0.0
2015-Feb-20 01:30N 40°40' W 074°03'0 0.0
2015-Feb-20 00:33N 40°39' W 074°03'0 0.0
2015-Feb-19 23:33N 40°39' W 074°03'0 0.0
2015-Feb-19 22:33N 40°39' W 074°03'0 0.0
2015-Feb-19 21:27N 40°39' W 074°03'0 0.0
2015-Feb-19 20:33N 40°39' W 074°03'0 0.2
2015-Feb-19 19:33N 40°39' W 074°03'8 7.5
2015-Feb-19 18:33N 40°47' W 074°00'2 1.3
2015-Feb-19 17:14N 40°48' W 073°59'0 0.1
2015-Feb-19 16:29N 40°48' W 073°59'0 0.1
2015-Feb-19 15:32N 40°48' W 073°59'0 0.1
2015-Feb-19 14:23N 40°48' W 073°59'0 0.0
2015-Feb-19 13:32N 40°48' W 073°59'0 0.0
2015-Feb-19 12:26N 40°48' W 073°59'0 0.1
2015-Feb-19 11:34N 40°48' W 073°59'5 4.5
2015-Feb-19 10:34N 40°44' W 074°01'2 2.4
2015-Feb-19 09:33N 40°43' W 073°58'6 6.3
2015-Feb-19 08:32N 40°48' W 073°53'8 5.8
2015-Feb-19 07:11N 40°52' W 073°44'3 5.2
2015-Feb-19 06:33N 40°54' W 073°40'6 5.8
2015-Feb-19 05:32N 40°58' W 073°34'2 2.1
2015-Feb-19 04:33N 40°58' W 073°31'5 4.7
2015-Feb-19 03:34N 40°60' W 073°26'8 8.2
2015-Feb-19 02:33N 41°02' W 073°16'1010.0
2015-Feb-19 01:31N 41°08' W 073°04'9 9.6
2015-Feb-19 00:34N 41°14' W 072°55'3 1.4
2015-Feb-18 22:09N 41°18' W 072°54'0 0.0
2015-Feb-18 20:33N 41°18' W 072°54'0 0.0
2015-Feb-18 16:09N 41°18' W 072°54'0 0.0
2015-Feb-18 15:09N 41°18' W 072°54'0 0.0
2015-Feb-18 14:21N 41°18' W 072°54'0 0.0
2015-Feb-18 13:33N 41°18' W 072°54'0 0.0
2015-Feb-18 12:33N 41°18' W 072°54'0 0.0
2015-Feb-18 11:33N 41°18' W 072°54'0 0.0
2015-Feb-18 10:33N 41°18' W 072°54'0 0.0
2015-Feb-18 09:30N 41°18' W 072°54'5 4.8
2015-Feb-18 08:33N 41°13' W 072°54'8 7.8
2015-Feb-18 07:33N 41°08' W 073°02'9 8.7
2015-Feb-18 06:33N 41°04' W 073°12'9 8.9
2015-Feb-18 05:33N 41°00' W 073°23'9 8.7
2015-Feb-18 04:33N 40°57' W 073°34'8 7.9
2015-Feb-18 03:33N 40°53' W 073°43'7 6.7
2015-Feb-18 02:33N 40°48' W 073°49'7 6.1
2015-Feb-18 01:25N 40°46' W 073°57'5 6.2
2015-Feb-18 00:33N 40°41' W 074°01'  

Dump ship's entire track history